Time;durP1;ratioP1;P1;durP2;ratioP2;P2;SDS_P1;SDS_P2;PMS_P1;PMS_P2;Temp;Humidity;BMP_temperature;BMP_pressure;BME280_temperature;BME280_humidity;BME280_pressure;Samples;Min_cycle;Max_cycle;Signal;HPM_P1;HPM_P2
2023/08/11 00:01:01;;;;;;;5.57;5.00;;;21.50;83.60;;;;;;5073609;28;20463;-60
2023/08/11 00:03:27;;;;;;;10.30;4.97;;;21.40;83.60;;;;;;5073218;28;20986;-60
2023/08/11 00:05:55;;;;;;;6.57;4.93;;;21.50;83.90;;;;;;5073505;28;20452;-60
2023/08/11 00:08:23;;;;;;;8.10;5.57;;;21.40;83.90;;;;;;5073163;28;20950;-60
2023/08/11 00:10:49;;;;;;;7.33;5.27;;;21.50;84.10;;;;;;5073501;28;20550;-60
2023/08/11 00:13:16;;;;;;;9.97;5.83;;;21.40;84.10;;;;;;5073124;28;20797;-60
2023/08/11 00:15:43;;;;;;;6.43;4.90;;;21.40;84.10;;;;;;5073377;28;20441;-60
2023/08/11 00:18:10;;;;;;;9.13;5.00;;;21.40;84.30;;;;;;5072818;28;20935;-61
2023/08/11 00:20:37;;;;;;;12.23;5.07;;;21.40;84.50;;;;;;5073470;28;20476;-60
2023/08/11 00:23:06;;;;;;;6.70;4.77;;;21.40;84.50;;;;;;5073545;28;20472;-60
2023/08/11 00:25:33;;;;;;;8.03;5.83;;;21.40;84.60;;;;;;5073971;28;20444;-60
2023/08/11 00:28:00;;;;;;;6.30;5.00;;;21.40;84.80;;;;;;5073606;28;20449;-60
2023/08/11 00:30:27;;;;;;;6.13;5.53;;;21.30;84.80;;;;;;5073563;28;20464;-60
2023/08/11 00:32:54;;;;;;;6.80;5.20;;;21.30;85.00;;;;;;5073710;28;20462;-60
2023/08/11 00:35:22;;;;;;;7.03;5.43;;;21.30;85.00;;;;;;5073599;28;20535;-60
2023/08/11 00:37:49;;;;;;;9.33;5.97;;;21.30;85.20;;;;;;5073406;28;20484;-60
2023/08/11 00:40:18;;;;;;;7.73;6.17;;;21.30;85.30;;;;;;5073567;28;20461;-60
2023/08/11 00:42:44;;;;;;;5.67;4.47;;;21.30;85.50;;;;;;5073310;28;20498;-60
2023/08/11 00:45:11;;;;;;;8.23;5.60;;;21.20;85.20;;;;;;5073535;28;20456;-60
2023/08/11 00:47:41;;;;;;;7.77;5.70;;;21.20;85.30;;;;;;5073481;28;20452;-60
2023/08/11 00:50:09;;;;;;;8.43;5.77;;;21.20;85.40;;;;;;5073607;28;20872;-60
2023/08/11 00:52:36;;;;;;;6.50;5.00;;;21.20;85.60;;;;;;5073331;28;20439;-60
2023/08/11 00:55:03;;;;;;;7.20;5.60;;;21.20;85.80;;;;;;5073410;28;20445;-60
2023/08/11 00:57:31;;;;;;;5.97;5.37;;;21.10;85.70;;;;;;5073154;28;20448;-60
2023/08/11 00:59:59;;;;;;;6.33;5.73;;;21.10;85.80;;;;;;5072964;28;20441;-60
2023/08/11 01:02:26;;;;;;;6.37;5.50;;;21.10;86.00;;;;;;5072797;28;20476;-60
2023/08/11 01:04:53;;;;;;;7.47;5.70;;;21.10;86.20;;;;;;5073253;28;20448;-60
2023/08/11 01:07:27;;;;;;;8.30;5.80;;;21.10;86.30;;;;;;5073275;28;20448;-61
2023/08/11 01:10:03;;;;;;;6.13;5.53;;;21.10;86.50;;;;;;5076811;28;20425;-61
2023/08/11 01:12:39;;;;;;;6.37;5.77;;;21.00;86.50;;;;;;5076763;28;20425;-60
2023/08/11 01:15:11;;;;;;;8.57;5.80;;;21.00;86.60;;;;;;5076714;28;20425;-60
2023/08/11 01:17:40;;;;;;;7.83;6.03;;;21.00;86.80;;;;;;5076460;28;20429;-60
2023/08/11 01:20:10;;;;;;;6.20;5.37;;;20.90;87.00;;;;;;5076410;28;20500;-60
2023/08/11 01:22:39;;;;;;;12.00;6.20;;;20.90;87.10;;;;;;5076137;28;20488;-60
2023/08/11 01:25:09;;;;;;;10.23;6.27;;;20.90;87.20;;;;;;5076267;28;20480;-60
2023/08/11 01:27:37;;;;;;;8.53;6.17;;;20.90;87.20;;;;;;5076219;28;20445;-60
2023/08/11 01:30:05;;;;;;;7.47;6.30;;;20.90;87.50;;;;;;5075816;28;20913;-60
2023/08/11 01:32:32;;;;;;;9.67;6.53;;;20.80;87.90;;;;;;5076092;28;20514;-60
2023/08/11 01:34:59;;;;;;;7.47;6.30;;;20.80;88.00;;;;;;5076141;28;20447;-60
2023/08/11 01:37:26;;;;;;;8.37;7.03;;;20.80;88.30;;;;;;5076073;28;20437;-60
2023/08/11 01:39:53;;;;;;;7.77;6.20;;;20.80;88.50;;;;;;5075864;28;20449;-60
2023/08/11 01:42:21;;;;;;;9.67;7.20;;;20.70;88.40;;;;;;5075915;28;20484;-60
2023/08/11 01:44:49;;;;;;;11.83;6.40;;;20.70;88.50;;;;;;5076049;28;20452;-60
2023/08/11 01:47:18;;;;;;;8.50;7.13;;;20.70;88.70;;;;;;5075699;28;20941;-60
2023/08/11 01:49:45;;;;;;;12.17;6.80;;;20.70;89.00;;;;;;5075889;28;20552;-60
2023/08/11 01:52:12;;;;;;;8.37;5.90;;;20.60;89.00;;;;;;5075853;28;20449;-60
2023/08/11 01:54:39;;;;;;;9.13;6.70;;;20.60;89.20;;;;;;5075723;28;20444;-60
2023/08/11 01:57:06;;;;;;;9.17;6.33;;;20.60;89.30;;;;;;5076055;28;20440;-60
2023/08/11 01:59:34;;;;;;;9.87;6.50;;;20.50;89.40;;;;;;5075672;28;20444;-60
2023/08/11 02:02:01;;;;;;;7.63;6.80;;;20.50;89.40;;;;;;5075556;28;20515;-60
2023/08/11 02:04:28;;;;;;;7.60;6.60;;;20.50;89.40;;;;;;5075247;28;20484;-60
2023/08/11 02:06:55;;;;;;;8.17;6.00;;;20.50;89.70;;;;;;5075554;28;20480;-60
2023/08/11 02:09:21;;;;;;;9.50;6.60;;;20.40;89.70;;;;;;5075180;28;20856;-60
2023/08/11 02:11:48;;;;;;;11.73;7.17;;;20.40;89.90;;;;;;5075373;28;20464;-60
2023/08/11 02:14:15;;;;;;;12.53;6.80;;;20.40;90.10;;;;;;5075091;28;20961;-60
2023/08/11 02:16:43;;;;;;;11.37;7.27;;;20.30;90.00;;;;;;5075379;28;20527;-60
2023/08/11 02:19:09;;;;;;;9.70;7.07;;;20.30;90.10;;;;;;5074919;28;20971;-60
2023/08/11 02:21:38;;;;;;;12.10;7.60;;;20.30;90.20;;;;;;5074788;28;20860;-60
2023/08/11 02:24:06;;;;;;;8.60;7.67;;;20.30;90.30;;;;;;5075161;28;20480;-60
2023/08/11 02:26:32;;;;;;;9.90;7.20;;;20.20;90.20;;;;;;5075248;28;20437;-60
2023/08/11 02:28:59;;;;;;;14.63;7.20;;;20.10;90.10;;;;;;5075162;28;20448;-60
2023/08/11 02:31:26;;;;;;;8.00;6.80;;;20.10;90.20;;;;;;5074928;28;20492;-60
2023/08/11 02:33:54;;;;;;;8.47;7.30;;;20.10;90.40;;;;;;5075225;28;20445;-60
2023/08/11 02:36:23;;;;;;;11.50;6.60;;;20.10;90.50;;;;;;5074608;28;20983;-60
2023/08/11 02:38:51;;;;;;;13.43;7.90;;;20.10;90.70;;;;;;5075005;28;20447;-59
2023/08/11 02:41:18;;;;;;;8.13;6.93;;;20.00;90.70;;;;;;5074743;28;20463;-59
2023/08/11 02:43:45;;;;;;;10.83;7.43;;;20.00;90.80;;;;;;5074690;28;20511;-60
2023/08/11 02:46:12;;;;;;;10.00;6.83;;;20.00;90.80;;;;;;5074465;28;20825;-60
2023/08/11 02:48:39;;;;;;;9.13;7.20;;;20.00;90.90;;;;;;5074249;28;20472;-60
2023/08/11 02:51:08;;;;;;;8.97;7.20;;;19.90;91.00;;;;;;5074491;28;20465;-60
2023/08/11 02:53:35;;;;;;;12.20;8.83;;;19.90;91.00;;;;;;5074241;28;20984;-60
2023/08/11 02:56:06;;;;;;;10.90;8.03;;;20.00;91.20;;;;;;5074470;28;20796;-60
2023/08/11 02:58:33;;;;;;;13.27;8.50;;;20.00;91.20;;;;;;5074691;28;20433;-60
2023/08/11 03:01:00;;;;;;;9.10;7.73;;;20.00;91.20;;;;;;5074719;28;20460;-60
2023/08/11 03:03:28;;;;;;;11.90;7.60;;;19.90;91.10;;;;;;5074265;28;20476;-60
2023/08/11 03:05:55;;;;;;;8.43;7.47;;;19.90;91.10;;;;;;5074427;28;20532;-60
2023/08/11 03:08:23;;;;;;;11.67;8.77;;;19.90;91.20;;;;;;5074422;28;20471;-60
2023/08/11 03:10:50;;;;;;;10.80;9.37;;;19.90;91.30;;;;;;5074206;28;20465;-60
2023/08/11 03:13:17;;;;;;;13.00;9.53;;;19.90;91.40;;;;;;5074246;28;20452;-60
2023/08/11 03:15:44;;;;;;;12.33;9.27;;;19.90;91.50;;;;;;5074166;28;20442;-60
2023/08/11 03:18:11;;;;;;;14.53;10.73;;;19.90;91.90;;;;;;5074121;28;20483;-60
2023/08/11 03:20:38;;;;;;;11.70;9.90;;;19.90;91.60;;;;;;5073927;28;20491;-60
2023/08/11 03:23:05;;;;;;;17.10;11.17;;;19.90;91.50;;;;;;5073971;28;20479;-60
2023/08/11 03:25:33;;;;;;;13.10;11.80;;;19.90;91.50;;;;;;5074003;28;20819;-60
2023/08/11 03:28:00;;;;;;;13.87;11.30;;;20.00;91.60;;;;;;5073945;28;20494;-60
2023/08/11 03:30:27;;;;;;;17.97;13.63;;;19.90;91.50;;;;;;5073473;28;20457;-60
2023/08/11 03:32:54;;;;;;;15.93;12.37;;;19.90;91.50;;;;;;5073817;28;20440;-60
2023/08/11 03:35:20;;;;;;;18.47;11.00;;;19.90;91.40;;;;;;5074367;28;20507;-60
2023/08/11 03:37:47;;;;;;;15.37;11.77;;;19.80;91.30;;;;;;5073809;28;20448;-60
2023/08/11 03:40:14;;;;;;;17.30;11.27;;;19.80;91.40;;;;;;5073732;28;20457;-60
2023/08/11 03:42:43;;;;;;;16.47;10.93;;;19.80;91.60;;;;;;5073557;28;20444;-60
2023/08/11 03:45:12;;;;;;;17.63;12.93;;;19.80;91.60;;;;;;5073667;28;20443;-60
2023/08/11 03:47:39;;;;;;;15.93;10.93;;;19.80;91.60;;;;;;5073326;28;20476;-60
2023/08/11 03:50:07;;;;;;;13.73;11.03;;;19.70;91.60;;;;;;5073646;28;20477;-60
2023/08/11 03:52:34;;;;;;;12.43;10.57;;;19.70;91.60;;;;;;5073532;28;20487;-60
2023/08/11 03:55:01;;;;;;;15.20;11.30;;;19.70;91.60;;;;;;5073576;28;20440;-60
2023/08/11 03:57:28;;;;;;;11.40;9.83;;;19.60;91.70;;;;;;5073494;28;20451;-60
2023/08/11 03:59:56;;;;;;;16.40;10.70;;;19.50;91.50;;;;;;5073444;28;20857;-60
2023/08/11 04:02:23;;;;;;;12.33;9.53;;;19.40;91.40;;;;;;5073414;28;20456;-60
2023/08/11 04:04:49;;;;;;;12.73;9.13;;;19.40;91.60;;;;;;5073334;28;20514;-60
2023/08/11 04:07:16;;;;;;;9.90;7.93;;;19.30;91.60;;;;;;5073314;28;20445;-60
2023/08/11 04:09:46;;;;;;;9.47;8.37;;;19.30;91.70;;;;;;5073413;28;20436;-60
2023/08/11 04:12:13;;;;;;;9.70;8.67;;;19.30;91.70;;;;;;5073072;28;20445;-60
2023/08/11 04:14:39;;;;;;;12.87;8.80;;;19.30;91.90;;;;;;5073022;28;20794;-60
2023/08/11 04:17:08;;;;;;;9.70;8.30;;;19.30;91.90;;;;;;5073245;28;20455;-60
2023/08/11 04:19:35;;;;;;;10.80;8.83;;;19.20;91.90;;;;;;5073252;28;20568;-60
2023/08/11 04:22:01;;;;;;;11.63;8.43;;;19.20;92.00;;;;;;5072932;28;21004;-60
2023/08/11 04:24:28;;;;;;;9.43;8.53;;;19.20;92.00;;;;;;5073060;28;20484;-60
2023/08/11 04:26:55;;;;;;;10.47;7.63;;;19.20;92.00;;;;;;5073205;28;20496;-60
2023/08/11 04:29:22;;;;;;;10.70;8.70;;;19.10;92.00;;;;;;5073145;28;20452;-59
2023/08/11 04:31:49;;;;;;;9.70;8.57;;;19.10;92.10;;;;;;5073016;28;20465;-60
2023/08/11 04:34:17;;;;;;;13.67;9.10;;;19.10;92.30;;;;;;5073131;28;20439;-60
2023/08/11 04:36:44;;;;;;;11.40;9.30;;;19.10;92.30;;;;;;5073082;28;20444;-60
2023/08/11 04:39:11;;;;;;;12.10;9.30;;;19.10;92.50;;;;;;5073014;28;20499;-60
2023/08/11 04:41:38;;;;;;;10.70;8.23;;;19.00;92.50;;;;;;5072946;28;20465;-60
2023/08/11 04:44:05;;;;;;;10.60;9.50;;;19.00;92.70;;;;;;5076054;28;20484;-59
2023/08/11 04:46:32;;;;;;;10.20;9.10;;;19.10;92.70;;;;;;5077070;28;20542;-60
2023/08/11 04:49:00;;;;;;;11.97;8.80;;;19.10;92.80;;;;;;5076911;28;20455;-60
2023/08/11 04:51:28;;;;;;;13.27;8.53;;;19.00;92.90;;;;;;5076463;28;20947;-59
2023/08/11 04:54:00;;;;;;;11.20;9.07;;;19.10;93.10;;;;;;5076823;28;20441;-59
2023/08/11 04:56:27;;;;;;;13.10;9.53;;;19.00;93.10;;;;;;5076696;28;20436;-60
2023/08/11 04:58:54;;;;;;;11.30;8.83;;;19.00;93.30;;;;;;5076776;28;20453;-59
2023/08/11 05:01:21;;;;;;;10.40;9.30;;;19.00;93.40;;;;;;5076385;28;20877;-60
2023/08/11 05:03:49;;;;;;;12.40;9.53;;;19.10;93.60;;;;;;5076671;28;20503;-60
2023/08/11 05:06:16;;;;;;;9.67;8.70;;;19.10;93.60;;;;;;5076675;28;20464;-60
2023/08/11 05:08:44;;;;;;;10.70;7.90;;;19.00;93.70;;;;;;5077117;28;20518;-60
2023/08/11 05:11:11;;;;;;;9.97;8.30;;;19.10;93.90;;;;;;5076428;28;20464;-60
2023/08/11 05:13:38;;;;;;;9.03;7.47;;;19.10;93.90;;;;;;5076518;28;20523;-59
2023/08/11 05:16:05;;;;;;;8.97;7.50;;;19.10;94.00;;;;;;5076154;28;20444;-60
2023/08/11 05:18:31;;;;;;;12.23;8.50;;;19.10;94.10;;;;;;5076472;28;20470;-60
2023/08/11 05:21:00;;;;;;;13.03;9.40;;;19.10;94.20;;;;;;5075758;28;20986;-60
2023/08/11 05:23:26;;;;;;;12.37;9.07;;;19.20;94.10;;;;;;5076245;28;20471;-60
2023/08/11 05:25:55;;;;;;;14.53;10.00;;;19.20;94.00;;;;;;5076212;28;20449;-59
2023/08/11 05:28:21;;;;;;;14.43;8.33;;;19.20;94.10;;;;;;5075934;28;20810;-60
2023/08/11 05:30:49;;;;;;;18.20;9.23;;;19.30;94.30;;;;;;5076121;28;20461;-60
2023/08/11 05:33:16;;;;;;;13.60;10.10;;;19.30;94.30;;;;;;5076168;28;20543;-60
2023/08/11 05:35:43;;;;;;;13.47;9.00;;;19.40;94.20;;;;;;5075739;28;20845;-60
2023/08/11 05:38:09;;;;;;;12.20;8.60;;;19.50;94.00;;;;;;5076121;28;20440;-60
2023/08/11 05:40:36;;;;;;;11.67;8.30;;;19.50;93.90;;;;;;5075596;28;21024;-60
2023/08/11 05:43:04;;;;;;;11.63;7.10;;;19.50;94.00;;;;;;5076008;28;20443;-60
2023/08/11 05:45:31;;;;;;;10.43;7.40;;;19.60;94.10;;;;;;5075901;28;20484;-60
2023/08/11 05:47:58;;;;;;;14.07;8.10;;;19.60;94.10;;;;;;5075915;28;20444;-60
2023/08/11 05:50:25;;;;;;;12.20;8.70;;;19.70;94.10;;;;;;5075973;28;20543;-60
2023/08/11 05:52:52;;;;;;;11.70;7.80;;;19.70;94.10;;;;;;5075837;28;20464;-60
2023/08/11 05:55:19;;;;;;;15.20;8.60;;;19.80;94.20;;;;;;5075312;28;20437;-60
2023/08/11 05:57:46;;;;;;;10.00;7.67;;;19.90;94.20;;;;;;5075708;28;20445;-60
2023/08/11 06:00:18;;;;;;;13.30;7.63;;;19.90;94.10;;;;;;5075274;28;20974;-60
2023/08/11 06:02:45;;;;;;;12.00;8.00;;;19.90;93.80;;;;;;5075643;28;20448;-60
2023/08/11 06:05:13;;;;;;;12.97;8.13;;;20.00;93.70;;;;;;5075602;28;20484;-60
2023/08/11 06:07:40;;;;;;;19.33;7.60;;;20.10;93.70;;;;;;5076135;28;20479;-60
2023/08/11 06:10:07;;;;;;;16.10;7.27;;;20.20;93.60;;;;;;5075454;28;20460;-59
2023/08/11 06:12:34;;;;;;;9.20;6.57;;;20.20;93.40;;;;;;5075500;28;20440;-60
2023/08/11 06:15:03;;;;;;;15.87;7.87;;;20.30;93.20;;;;;;5075537;28;20440;-60
2023/08/11 06:17:31;;;;;;;10.13;7.00;;;20.30;93.10;;;;;;5075247;28;20939;-60
2023/08/11 06:19:57;;;;;;;14.50;7.87;;;20.40;93.50;;;;;;5075094;28;20973;-60
2023/08/11 06:22:24;;;;;;;9.90;6.50;;;20.50;93.50;;;;;;5075723;28;20452;-60
2023/08/11 06:24:51;;;;;;;8.87;6.70;;;20.60;92.70;;;;;;5075295;28;20487;-60
2023/08/11 06:27:18;;;;;;;9.83;6.43;;;20.60;92.10;;;;;;5075309;28;20440;-60
2023/08/11 06:29:44;;;;;;;8.30;5.63;;;20.70;92.10;;;;;;5075042;28;20451;-60
2023/08/11 06:32:11;;;;;;;7.10;5.17;;;20.80;91.10;;;;;;5075146;28;20441;-60
2023/08/11 06:34:39;;;;;;;8.67;5.10;;;20.80;90.30;;;;;;5074952;28;20835;-60
2023/08/11 06:37:06;;;;;;;9.30;5.90;;;20.90;90.00;;;;;;5074692;28;20444;-60
2023/08/11 06:39:32;;;;;;;9.10;5.00;;;20.90;89.90;;;;;;5074956;28;20444;-60
2023/08/11 06:41:59;;;;;;;6.23;4.80;;;21.00;86.20;;;;;;5074850;28;20461;-60
2023/08/11 06:44:26;;;;;;;5.73;4.90;;;21.10;85.70;;;;;;5074683;28;20477;-60
2023/08/11 06:46:52;;;;;;;10.00;4.63;;;21.10;86.00;;;;;;5074823;28;20452;-60
2023/08/11 06:49:19;;;;;;;7.23;4.80;;;21.20;85.80;;;;;;5074746;28;20536;-60
2023/08/11 06:51:47;;;;;;;6.70;4.30;;;21.30;85.30;;;;;;5074687;28;20465;-60
2023/08/11 06:54:14;;;;;;;5.60;4.40;;;21.40;84.90;;;;;;5074694;28;20444;-60
2023/08/11 06:56:40;;;;;;;7.23;4.07;;;21.40;84.70;;;;;;5074588;28;20444;-60
2023/08/11 06:59:07;;;;;;;7.10;4.80;;;21.60;84.70;;;;;;5074706;28;20448;-60
2023/08/11 07:01:34;;;;;;;6.00;4.70;;;21.70;84.60;;;;;;5074676;28;20521;-60
2023/08/11 07:04:01;;;;;;;8.53;4.77;;;21.90;84.90;;;;;;5074463;28;20476;-60
2023/08/11 07:06:27;;;;;;;7.47;5.07;;;22.00;85.00;;;;;;5073223;28;20498;-60
2023/08/11 07:08:55;;;;;;;9.73;5.80;;;22.20;84.20;;;;;;5074354;28;20472;-60
2023/08/11 07:11:22;;;;;;;5.30;4.37;;;22.40;84.20;;;;;;5074361;28;20460;-60
2023/08/11 07:13:49;;;;;;;5.80;4.20;;;22.60;83.30;;;;;;5074314;28;20444;-60
2023/08/11 07:16:15;;;;;;;5.47;4.10;;;22.70;82.20;;;;;;5074022;28;20794;-60
2023/08/11 07:18:42;;;;;;;6.73;4.07;;;22.90;81.50;;;;;;5074225;28;20445;-60
2023/08/11 07:21:09;;;;;;;7.67;4.83;;;23.10;80.90;;;;;;5074283;28;20476;-60
2023/08/11 07:23:35;;;;;;;6.67;4.60;;;23.30;80.10;;;;;;5074091;28;20440;-60
2023/08/11 07:26:03;;;;;;;5.33;4.27;;;23.50;79.70;;;;;;5074015;28;20481;-60
2023/08/11 07:28:30;;;;;;;5.50;4.63;;;23.70;79.00;;;;;;5074044;28;20441;-60
2023/08/11 07:30:57;;;;;;;6.27;4.30;;;23.90;78.30;;;;;;5074013;28;20461;-59
2023/08/11 07:33:23;;;;;;;11.60;4.73;;;24.10;77.40;;;;;;5073981;28;20453;-59
2023/08/11 07:35:50;;;;;;;6.70;4.93;;;24.30;76.70;;;;;;5073871;28;20444;-59
2023/08/11 07:38:18;;;;;;;8.93;5.30;;;24.50;75.60;;;;;;5074015;28;20452;-58
2023/08/11 07:40:45;;;;;;;7.43;4.20;;;24.70;74.70;;;;;;5073795;28;20476;-58
2023/08/11 07:43:13;;;;;;;6.40;4.13;;;24.90;73.00;;;;;;5073906;28;20444;-58
2023/08/11 07:45:39;;;;;;;7.70;3.87;;;25.10;69.80;;;;;;5073677;28;20840;-58
2023/08/11 07:48:06;;;;;;;5.43;3.90;;;25.20;67.60;;;;;;5073603;28;20448;-59
2023/08/11 07:50:35;;;;;;;5.20;3.80;;;25.40;66.80;;;;;;5073679;28;20792;-59
2023/08/11 07:53:02;;;;;;;8.00;4.17;;;25.70;67.20;;;;;;5073745;28;20449;-59
2023/08/11 07:55:29;;;;;;;5.37;4.53;;;25.90;67.30;;;;;;5073780;28;20443;-59
2023/08/11 07:57:56;;;;;;;4.30;3.90;;;26.10;65.70;;;;;;5073700;28;20441;-59
2023/08/11 08:00:25;;;;;;;5.40;4.00;;;26.30;64.50;;;;;;5073507;28;20841;-59
2023/08/11 08:02:53;;;;;;;9.73;4.47;;;26.50;64.60;;;;;;5073757;28;20444;-59
2023/08/11 08:05:20;;;;;;;7.63;3.90;;;26.80;62.80;;;;;;5073744;28;20476;-59
2023/08/11 08:07:47;;;;;;;5.33;4.20;;;27.00;61.00;;;;;;5073674;28;20453;-59
2023/08/11 08:10:14;;;;;;;3.60;3.30;;;27.20;60.00;;;;;;5073210;28;20498;-59
2023/08/11 08:12:43;;;;;;;4.20;3.23;;;27.40;57.10;;;;;;5073562;28;20441;-59
2023/08/11 08:15:11;;;;;;;4.73;2.67;;;27.50;55.30;;;;;;5073251;28;20456;-59
2023/08/11 08:17:40;;;;;;;7.87;3.17;;;27.80;55.00;;;;;;5073261;28;20441;-59
2023/08/11 08:20:09;;;;;;;5.70;3.77;;;28.00;53.30;;;;;;5073251;28;20464;-59
2023/08/11 08:22:36;;;;;;;4.23;3.20;;;28.20;51.90;;;;;;5072823;28;20492;-59
2023/08/11 08:25:06;;;;;;;5.53;3.00;;;28.40;51.10;;;;;;5073104;28;20507;-58
2023/08/11 08:27:33;;;;;;;5.83;3.60;;;28.60;51.50;;;;;;5073255;28;20417;-58
2023/08/11 08:30:00;;;;;;;5.90;3.60;;;28.90;51.10;;;;;;5072914;28;20934;-58
2023/08/11 08:32:27;;;;;;;4.37;3.00;;;29.00;48.10;;;;;;5073265;28;20822;-58
2023/08/11 08:34:55;;;;;;;4.33;3.20;;;29.10;47.60;;;;;;5073115;28;20472;-58
2023/08/11 08:37:24;;;;;;;3.97;3.13;;;29.30;47.90;;;;;;5072955;28;20436;-59
2023/08/11 08:39:51;;;;;;;3.10;2.80;;;29.40;46.80;;;;;;5073038;28;20447;-59
2023/08/11 08:42:19;;;;;;;5.50;2.90;;;29.60;46.70;;;;;;5073138;28;20513;-58
2023/08/11 08:44:49;;;;;;;3.83;2.87;;;29.70;45.90;;;;;;5072720;28;20861;-58
2023/08/11 08:47:17;;;;;;;3.57;3.23;;;29.90;45.10;;;;;;5072936;28;20963;-58
2023/08/11 08:49:46;;;;;;;5.07;3.20;;;30.00;45.60;;;;;;5073130;28;20448;-58
2023/08/11 08:52:14;;;;;;;4.50;3.50;;;30.20;44.60;;;;;;5073062;28;20494;-58
2023/08/11 08:54:41;;;;;;;6.00;3.17;;;30.40;46.40;;;;;;5073046;28;20440;-58
2023/08/11 08:57:09;;;;;;;3.13;2.83;;;30.50;46.90;;;;;;5072644;28;20934;-58
2023/08/11 08:59:37;;;;;;;5.53;3.13;;;30.70;47.10;;;;;;5073048;28;20456;-58
2023/08/11 09:02:04;;;;;;;7.57;3.30;;;30.90;45.90;;;;;;5072927;28;20470;-58
2023/08/11 09:04:32;;;;;;;6.93;3.10;;;31.10;44.10;;;;;;5072960;28;20444;-59
2023/08/11 09:06:59;;;;;;;3.40;3.10;;;31.30;42.60;;;;;;5072886;28;20818;-59
2023/08/11 09:09:28;;;;;;;5.63;3.07;;;31.40;42.40;;;;;;5072885;28;20440;-59
2023/08/11 09:11:55;;;;;;;4.93;3.30;;;31.60;43.60;;;;;;5072888;28;20542;-59
2023/08/11 09:14:23;;;;;;;6.57;3.17;;;31.80;44.20;;;;;;5072847;28;20444;-59
2023/08/11 09:16:51;;;;;;;5.23;3.03;;;31.70;41.90;;;;;;5073652;28;20444;-59
2023/08/11 09:19:19;;;;;;;4.60;2.77;;;31.80;42.80;;;;;;5072904;28;20443;-59
2023/08/11 09:21:46;;;;;;;6.97;3.73;;;31.90;42.90;;;;;;5072664;28;20468;-59
2023/08/11 09:24:13;;;;;;;11.20;3.03;;;32.00;42.00;;;;;;5072719;28;20954;-60
2023/08/11 09:26:44;;;;;;;6.23;3.63;;;32.20;42.60;;;;;;5072884;28;20476;-60
2023/08/11 09:29:12;;;;;;;3.30;2.90;;;32.30;41.80;;;;;;5073910;28;20482;-59
2023/08/11 09:31:39;;;;;;;3.30;2.80;;;32.40;41.70;;;;;;5076310;28;20840;-59
2023/08/11 09:34:14;;;;;;;7.33;3.27;;;32.60;42.30;;;;;;5076230;28;20450;-59
2023/08/11 09:36:42;;;;;;;4.90;2.77;;;32.50;41.40;;;;;;5076236;28;20439;-59
2023/08/11 09:39:09;;;;;;;4.43;3.20;;;32.60;40.00;;;;;;5076219;28;20455;-59
2023/08/11 09:41:41;;;;;;;7.03;3.30;;;32.60;38.90;;;;;;5076151;28;20483;-59
2023/08/11 09:44:10;;;;;;;9.80;3.27;;;32.90;39.50;;;;;;5075759;28;20964;-59
2023/08/11 09:46:38;;;;;;;13.27;3.97;;;33.10;39.40;;;;;;5075657;28;20475;-59
2023/08/11 09:49:05;;;;;;;6.93;3.80;;;33.30;38.20;;;;;;5075954;28;20440;-58
2023/08/11 09:51:33;;;;;;;6.57;3.20;;;33.30;37.30;;;;;;5075911;28;20466;-58
2023/08/11 09:54:02;;;;;;;6.13;3.10;;;33.40;37.00;;;;;;5075973;28;20468;-58
2023/08/11 09:56:31;;;;;;;8.30;3.30;;;33.60;37.00;;;;;;5075576;28;20877;-59
2023/08/11 09:58:59;;;;;;;7.40;3.23;;;33.80;36.50;;;;;;5075270;28;20547;-58
2023/08/11 10:01:30;;;;;;;7.87;3.50;;;33.70;36.10;;;;;;5076191;28;20464;-58
2023/08/11 10:03:58;;;;;;;7.57;4.07;;;33.70;37.30;;;;;;5075585;28;20429;-59
2023/08/11 10:06:30;;;;;;;8.70;3.90;;;33.70;37.10;;;;;;5075031;28;21035;-58
2023/08/11 10:09:01;;;;;;;8.23;3.80;;;34.00;38.10;;;;;;5075368;28;20433;-58
2023/08/11 10:11:32;;;;;;;6.40;3.80;;;34.20;36.30;;;;;;5075586;28;20804;-59
2023/08/11 10:14:01;;;;;;;9.20;3.50;;;34.40;36.30;;;;;;5075596;28;20439;-59
2023/08/11 10:16:30;;;;;;;7.50;3.20;;;34.80;36.50;;;;;;5075865;28;20285;-59
2023/08/11 10:18:58;;;;;;;5.23;2.90;;;35.10;36.00;;;;;;5075441;28;20237;-59
2023/08/11 10:21:25;;;;;;;8.73;3.33;;;34.90;32.60;;;;;;5075083;28;20610;-58
2023/08/11 10:23:53;;;;;;;4.53;3.10;;;34.70;32.70;;;;;;5075377;28;20206;-59
2023/08/11 10:26:20;;;;;;;8.20;3.50;;;34.70;32.70;;;;;;5075254;28;20293;-59
2023/08/11 10:28:48;;;;;;;4.53;3.20;;;35.20;33.80;;;;;;5075292;28;20213;-58
2023/08/11 10:31:14;;;;;;;9.90;2.93;;;35.50;33.20;;;;;;5075116;28;20221;-59
2023/08/11 10:33:48;;;;;;;3.03;2.83;;;35.80;30.60;;;;;;5075241;28;20209;-59
2023/08/11 10:36:17;;;;;;;3.30;2.78;;;36.30;32.50;;;;;;5075062;28;20182;-59
2023/08/11 10:38:45;;;;;;;5.13;2.77;;;36.80;31.10;;;;;;5075151;28;20205;-59
2023/08/11 10:41:17;;;;;;;2.83;2.53;;;37.40;29.10;;;;;;5074714;28;20715;-60
2023/08/11 10:43:48;;;;;;;9.95;2.72;;;38.10;28.80;;;;;;5074964;28;20193;-60
2023/08/11 10:46:21;;;;;;;5.22;2.55;;;38.80;28.80;;;;;;5074745;28;20210;-58
2023/08/11 10:48:50;;;;;;;6.70;2.97;;;39.60;27.30;;;;;;5074394;28;20241;-59
2023/08/11 10:51:39;;;;;;;6.60;3.08;;;40.10;27.00;;;;;;5074741;28;20304;-59
2023/08/11 10:54:10;;;;;;;8.18;3.30;;;40.70;27.00;;;;;;5070219;28;20264;-60
2023/08/11 10:56:38;;;;;;;9.75;2.95;;;41.00;25.60;;;;;;5074699;28;20186;-60
2023/08/11 10:59:12;;;;;;;9.73;2.90;;;41.30;23.60;;;;;;5074247;28;20668;-60
2023/08/11 11:01:40;;;;;;;9.65;2.97;;;41.90;24.10;;;;;;5074585;28;20226;-60
2023/08/11 11:04:09;;;;;;;6.07;2.70;;;42.30;23.70;;;;;;5074615;28;20205;-60
2023/08/11 11:06:37;;;;;;;8.15;2.55;;;42.30;22.50;;;;;;5074461;28;20226;-60
2023/08/11 11:09:04;;;;;;;6.40;2.70;;;42.40;22.70;;;;;;5074448;28;20228;-60
2023/08/11 11:11:31;;;;;;;3.63;2.78;;;42.20;21.70;;;;;;5074337;28;20244;-59
2023/08/11 11:13:59;;;;;;;3.95;2.42;;;42.10;23.10;;;;;;5074322;28;20202;-60
2023/08/11 11:16:26;;;;;;;4.50;2.40;;;42.40;23.30;;;;;;5073983;28;20598;-60
2023/08/11 11:18:53;;;;;;;3.47;2.45;;;43.00;23.30;;;;;;5061180;28;20209;-60
2023/08/11 11:21:21;;;;;;;3.65;2.85;;;43.50;22.20;;;;;;5053769;28;20234;-60
2023/08/11 11:23:49;;;;;;;9.20;3.25;;;43.90;20.10;;;;;;5054208;28;20217;-60
2023/08/11 11:26:21;;;;;;;5.30;2.67;;;44.10;21.20;;;;;;5053682;28;20569;-59
2023/08/11 11:28:48;;;;;;;2.92;2.13;;;44.40;21.00;;;;;;5054108;28;20183;-59
2023/08/11 11:31:16;;;;;;;4.82;2.38;;;44.60;20.00;;;;;;5053884;28;20222;-60
2023/08/11 11:33:43;;;;;;;5.03;2.47;;;44.40;19.80;;;;;;5053962;28;20237;-60
2023/08/11 11:36:10;;;;;;;5.68;2.78;;;44.50;19.90;;;;;;5053397;28;20675;-60
2023/08/11 11:38:38;;;;;;;6.22;2.35;;;44.50;20.10;;;;;;5053780;28;20211;-60
2023/08/11 11:41:09;;;;;;;2.65;2.42;;;44.60;20.70;;;;;;5053353;28;20226;-60
2023/08/11 11:43:36;;;;;;;2.75;2.28;;;44.80;20.50;;;;;;5053907;28;20190;-60
2023/08/11 11:46:03;;;;;;;4.25;2.53;;;44.70;20.30;;;;;;5053770;28;20226;-59
2023/08/11 11:48:30;;;;;;;4.00;2.97;;;44.60;20.80;;;;;;5053714;28;20208;-59
2023/08/11 11:50:57;;;;;;;4.40;2.45;;;44.80;20.90;;;;;;5053599;28;20230;-59
2023/08/11 11:53:24;;;;;;;3.60;2.65;;;45.10;19.20;;;;;;5053127;28;20692;-59
2023/08/11 11:55:53;;;;;;;3.40;2.60;;;45.20;19.80;;;;;;5053592;28;20209;-60
2023/08/11 11:58:21;;;;;;;3.47;2.42;;;45.20;20.50;;;;;;5053503;28;20237;-60
2023/08/11 12:00:48;;;;;;;3.63;2.72;;;45.20;19.50;;;;;;5053186;28;20729;-60
2023/08/11 12:03:15;;;;;;;3.15;2.85;;;45.30;20.90;;;;;;5053146;28;20203;-60
2023/08/11 12:05:42;;;;;;;8.02;3.08;;;45.50;20.30;;;;;;5053486;28;20214;-60
2023/08/11 12:08:20;;;;;;;3.47;2.53;;;45.90;19.70;;;;;;5053512;28;20214;-59
2023/08/11 12:10:47;;;;;;;3.88;2.47;;;46.00;18.10;;;;;;5053345;28;20222;-59
2023/08/11 12:13:17;;;;;;;5.07;2.78;;;45.80;19.00;;;;;;5053406;28;20202;-59
2023/08/11 12:15:48;;;;;;;3.35;2.00;;;45.90;18.70;;;;;;5053406;28;20194;-59
2023/08/11 12:18:15;;;;;;;3.60;2.78;;;45.90;18.20;;;;;;5053330;28;20183;-59
2023/08/11 12:20:42;;;;;;;8.38;2.92;;;46.10;18.80;;;;;;5052908;28;20230;-59
2023/08/11 12:23:08;;;;;;;5.18;2.97;;;46.40;18.20;;;;;;5053347;28;20209;-59
2023/08/11 12:25:35;;;;;;;4.95;2.35;;;46.50;17.80;;;;;;5053455;28;20207;-59
2023/08/11 12:28:02;;;;;;;4.57;2.88;;;46.40;18.10;;;;;;5053709;28;20209;-59
2023/08/11 12:30:31;;;;;;;5.00;2.45;;;46.60;18.00;;;;;;5053001;28;20789;-59
2023/08/11 12:32:57;;;;;;;2.67;2.47;;;46.90;17.60;;;;;;5053568;28;20237;-59
2023/08/11 12:35:24;;;;;;;6.13;2.75;;;47.20;17.40;;;;;;5053521;28;20210;-59
2023/08/11 12:37:51;;;;;;;6.07;2.70;;;47.20;17.60;;;;;;5053646;28;20548;-59
2023/08/11 12:40:18;;;;;;;2.10;2.00;;;47.30;18.00;;;;;;5053353;28;20222;-59
2023/08/11 12:42:45;;;;;;;3.45;2.65;;;47.50;17.10;;;;;;5053123;28;20302;-59
2023/08/11 12:45:12;;;;;;;4.32;2.58;;;47.50;17.40;;;;;;5053302;28;20234;-60